ASN logo
ASN Wikibase Occurrence # 224301
Last updated: 21 September 2021
This information is added by users of ASN. Neither ASN nor the Flight Safety Foundation are responsible for the completeness or correctness of this information. If you feel this information is incomplete or incorrect, you can submit corrected information.

Date:23-APR-2019
Time:19:30 LT
Type:Silhouette image of generic A320 model; specific model in this crash may look slightly different
Airbus A320-214
Owner/operator:Airblue
Registration: AP-EDA
MSN: 3974
Fatalities:Fatalities: 0 / Occupants: 150
Other fatalities:0
Aircraft damage: Minor
Category:Serious incident
Location:Peshawar International Airport (OPPS) -   Pakistan
Phase: Landing
Nature:Passenger - Scheduled
Departure airport:Sharjah Airport (SHJ/OMSJ)
Destination airport:Peshawar-Bacha Khan International Airport (PEW/OPPS)
Narrative:
Airblue flight PA613, an Airbus A320-214, suffered a runway excursion while landing at Peshawar International Airport, Pakistan. After landing on runway 35, the aircraft stopped on the stop way damaging aircraft arresting barriers. The airline confirmed that both engines were damaged. There were no injuries to the 150 occupants.

Metars:
OPPS 231500Z 18022KT 4000 TSRA FEW035CB SCT035 BKN090 21/19 Q1012=
>> OPPS 231430Z 31018KT 4000 TSRA FEW035CB SCT035 BKN090 23/17 Q1012=
OPPS 231400Z 31018KT 4000 TSRA FEW035CB SCT035 BKN090 23/17 Q1012=
OPPS 231330Z 23016KT 4000 TS FEW035CB SCT035 BKN100 23/17 Q1009=

Sources:

https://www.bea.aero/en/investigation-reports/notified-events/detail/event/sortie-longitudinale-de-piste-lors-de-latterrissage-22/
https://www.flightradar24.com/data/aircraft/ap-eda#20423034


Revision history:

Date/timeContributorUpdates
24-Apr-2019 19:06 Captain Adam Added
24-Apr-2019 22:38 RobertMB Updated [Aircraft type, Cn, Operator, Location, Departure airport, Destination airport, Narrative]
24-Apr-2019 22:39 RobertMB Updated [Location]
25-Apr-2019 18:06 Anon. Updated [Aircraft type]
28-Apr-2019 22:08 RobertMB Updated [Cn, Narrative]
07-May-2019 18:50 harro Updated [Time, Location, Departure airport, Destination airport, Source, Narrative]
07-May-2019 18:50 harro Updated [Source, Damage]

Corrections or additions? ... Edit this accident description